Time;durP1;ratioP1;P1;durP2;ratioP2;P2;SDS_P1;SDS_P2;PMS_P1;PMS_P2;Temp;Humidity;BMP_temperature;BMP_pressure;BME280_temperature;BME280_humidity;BME280_pressure;Samples;Min_cycle;Max_cycle;Signal;HPM_P1;HPM_P2
2022/05/03 00:01:02;;;;;;;3.33;1.20;;;;;;;;;;5055979;28;20083;-73
2022/05/03 00:03:30;;;;;;;5.38;1.60;;;;;;;;;;5054686;28;20500;-72
2022/05/03 00:06:02;;;;;;;4.28;1.30;;;;;;;;;;5055841;28;20086;-72
2022/05/03 00:08:29;;;;;;;5.15;1.10;;;;;;;;;;5056003;28;20076;-73
2022/05/03 00:10:59;;;;;;;5.85;1.77;;;;;;;;;;5055925;28;20108;-74
2022/05/03 00:13:34;;;;;;;5.55;1.60;;;;;;;;;;5055818;28;20060;-74
2022/05/03 00:16:01;;;;;;;4.80;1.55;;;;;;;;;;5054491;28;20029;-72
2022/05/03 00:18:29;;;;;;;2.25;1.00;;;;;;;;;;5055754;28;20025;-72
2022/05/03 00:20:56;;;;;;;5.45;1.40;;;;;;;;;;5055651;28;20029;-73
2022/05/03 00:23:23;;;;;;;4.78;1.38;;;;;;;;;;5058798;28;20377;-73
2022/05/03 00:25:54;;;;;;;6.90;1.50;;;;;;;;;;5060381;28;20048;-74
2022/05/03 00:28:21;;;;;;;4.93;1.20;;;;;;;;;;5056324;28;20025;-70
2022/05/03 00:30:49;;;;;;;5.47;1.23;;;;;;;;;;5054372;28;20029;-72
2022/05/03 00:33:16;;;;;;;4.53;1.20;;;;;;;;;;5058702;28;20041;-72
2022/05/03 00:35:44;;;;;;;3.50;1.10;;;;;;;;;;5057516;28;20389;-71
2022/05/03 00:38:11;;;;;;;3.83;1.10;;;;;;;;;;5053912;28;20033;-72
2022/05/03 00:40:44;;;;;;;3.83;0.90;;;;;;;;;;5056306;28;20059;-72
2022/05/03 00:43:11;;;;;;;2.28;0.80;;;;;;;;;;5055321;28;20017;-71
2022/05/03 00:45:48;;;;;;;5.45;1.00;;;;;;;;;;5055113;28;20036;-71
2022/05/03 00:48:27;;;;;;;4.75;1.70;;;;;;;;;;5055358;28;20029;-73
2022/05/03 00:51:16;;;;;;;8.05;2.10;;;;;;;;;;5053865;28;20033;-73
2022/05/03 00:53:52;;;;;;;6.55;1.98;;;;;;;;;;5055192;28;20079;-73
2022/05/03 00:56:39;;;;;;;6.60;1.90;;;;;;;;;;5053663;28;20036;-72
2022/05/03 00:59:24;;;;;;;2.97;0.75;;;;;;;;;;5055101;28;20124;-72
2022/05/03 01:02:00;;;;;;;5.45;1.35;;;;;;;;;;5055133;28;20025;-73
2022/05/03 01:04:45;;;;;;;1.35;0.55;;;;;;;;;;5056052;28;20021;-71
2022/05/03 01:07:18;;;;;;;3.03;0.77;;;;;;;;;;5054950;28;20036;-75
2022/05/03 01:10:04;;;;;;;3.60;0.50;;;;;;;;;;5055470;28;20025;-73
2022/05/03 01:12:49;;;;;;;2.22;0.50;;;;;;;;;;5054834;28;20382;-72
2022/05/03 01:15:21;;;;;;;3.30;0.70;;;;;;;;;;5055173;28;20174;-74
2022/05/03 01:17:54;;;;;;;2.58;0.93;;;;;;;;;;5054711;28;20024;-72
2022/05/03 01:20:30;;;;;;;2.35;0.60;;;;;;;;;;5054608;28;20017;-72
2022/05/03 01:23:16;;;;;;;2.85;0.68;;;;;;;;;;5054936;28;20415;-73
2022/05/03 01:25:46;;;;;;;3.47;0.52;;;;;;;;;;5054619;28;20097;-72
2022/05/03 01:28:23;;;;;;;3.83;0.47;;;;;;;;;;5054557;28;20478;-72
2022/05/03 01:30:52;;;;;;;4.28;0.68;;;;;;;;;;5054438;28;20021;-72
2022/05/03 01:33:23;;;;;;;1.67;0.40;;;;;;;;;;5054355;28;20059;-72
2022/05/03 01:35:52;;;;;;;2.80;0.73;;;;;;;;;;5054244;28;20036;-71
2022/05/03 01:38:47;;;;;;;2.75;0.80;;;;;;;;;;5054211;28;20025;-71
2022/05/03 01:41:14;;;;;;;2.70;0.40;;;;;;;;;;5054250;28;20021;-71
2022/05/03 01:43:59;;;;;;;2.03;0.60;;;;;;;;;;5052720;28;20032;-71
2022/05/03 01:46:31;;;;;;;1.83;0.55;;;;;;;;;;5054104;28;20051;-71
2022/05/03 01:52:11;;;;;;;4.03;0.50;;;;;;;;;;5054427;28;20068;-73
2022/05/03 01:54:41;;;;;;;2.72;0.55;;;;;;;;;;5054061;28;20325;-73
2022/05/03 01:57:08;;;;;;;3.25;0.60;;;;;;;;;;5053923;28;20376;-72
2022/05/03 01:59:45;;;;;;;2.78;0.60;;;;;;;;;;5053868;28;20025;-73
2022/05/03 02:02:31;;;;;;;1.50;0.38;;;;;;;;;;5053831;28;20062;-72
2022/05/03 02:05:05;;;;;;;2.35;0.55;;;;;;;;;;5053740;28;20048;-74
2022/05/03 02:07:50;;;;;;;4.63;0.63;;;;;;;;;;5053619;28;20041;-73
2022/05/03 02:10:20;;;;;;;2.60;0.38;;;;;;;;;;5053793;28;20025;-73
2022/05/03 02:12:49;;;;;;;2.00;0.65;;;;;;;;;;5052303;28;20032;-72
2022/05/03 02:15:18;;;;;;;3.10;0.40;;;;;;;;;;5053549;28;20035;-72
2022/05/03 02:17:46;;;;;;;3.83;0.50;;;;;;;;;;5053412;28;20033;-72
2022/05/03 02:20:31;;;;;;;3.28;0.38;;;;;;;;;;5052054;28;20556;-71
2022/05/03 02:23:01;;;;;;;2.92;0.55;;;;;;;;;;5053526;28;20032;-72
2022/05/03 02:25:47;;;;;;;2.67;0.50;;;;;;;;;;5053485;28;20428;-73
2022/05/03 02:28:25;;;;;;;3.10;0.50;;;;;;;;;;5053345;28;20520;-73
2022/05/03 02:30:53;;;;;;;2.15;0.57;;;;;;;;;;5053439;28;20021;-72
2022/05/03 02:33:26;;;;;;;2.17;0.50;;;;;;;;;;5063339;28;20021;-74
2022/05/03 02:35:58;;;;;;;3.13;0.73;;;;;;;;;;5062370;28;20027;-73
2022/05/03 02:38:38;;;;;;;1.08;0.50;;;;;;;;;;5059372;28;20021;-72
2022/05/03 02:41:06;;;;;;;1.98;0.30;;;;;;;;;;5058426;28;20025;-74
2022/05/03 02:43:36;;;;;;;2.33;0.38;;;;;;;;;;5053900;28;20028;-74
2022/05/03 02:46:22;;;;;;;3.75;0.88;;;;;;;;;;5053276;28;20110;-74
2022/05/03 02:48:56;;;;;;;2.05;0.40;;;;;;;;;;5053147;28;20021;-74
2022/05/03 02:51:29;;;;;;;2.58;0.65;;;;;;;;;;5051954;28;20025;-74
2022/05/03 02:54:03;;;;;;;4.82;0.70;;;;;;;;;;5051830;28;20024;-74
2022/05/03 02:56:35;;;;;;;5.82;0.70;;;;;;;;;;5051797;28;20122;-74
2022/05/03 02:59:20;;;;;;;4.75;0.70;;;;;;;;;;5051180;28;20032;-74
2022/05/03 03:01:50;;;;;;;3.72;0.50;;;;;;;;;;5052979;28;20029;-74
2022/05/03 03:04:36;;;;;;;4.65;0.98;;;;;;;;;;5055048;28;20051;-73
2022/05/03 03:07:05;;;;;;;4.65;0.60;;;;;;;;;;5057107;28;20132;-73
2022/05/03 03:09:48;;;;;;;4.95;0.73;;;;;;;;;;5055904;28;20060;-72
2022/05/03 03:12:23;;;;;;;3.33;0.90;;;;;;;;;;5055821;28;20056;-72
2022/05/03 03:14:56;;;;;;;3.63;0.85;;;;;;;;;;5055562;28;20017;-73
2022/05/03 03:17:30;;;;;;;4.35;1.00;;;;;;;;;;5054838;28;20103;-73
2022/05/03 03:20:00;;;;;;;5.43;0.77;;;;;;;;;;5053136;28;20499;-73
2022/05/03 03:22:46;;;;;;;4.10;1.15;;;;;;;;;;5053638;28;20017;-72
2022/05/03 03:25:14;;;;;;;6.25;0.90;;;;;;;;;;5053047;28;20028;-73
2022/05/03 03:27:43;;;;;;;4.60;0.85;;;;;;;;;;5053608;28;20021;-73
2022/05/03 03:30:11;;;;;;;5.13;0.93;;;;;;;;;;5052980;28;20025;-73
2022/05/03 03:32:47;;;;;;;5.70;1.05;;;;;;;;;;5052312;28;20492;-73
2022/05/03 03:35:14;;;;;;;5.43;1.00;;;;;;;;;;5052359;28;20381;-73
2022/05/03 03:37:46;;;;;;;9.38;1.10;;;;;;;;;;5052857;28;20078;-73
2022/05/03 03:40:14;;;;;;;6.07;1.08;;;;;;;;;;5051303;28;20029;-71
2022/05/03 03:42:45;;;;;;;4.78;1.00;;;;;;;;;;5052652;28;20052;-71
2022/05/03 03:45:14;;;;;;;6.88;1.23;;;;;;;;;;5051541;28;20107;-72
2022/05/03 03:47:43;;;;;;;3.42;0.80;;;;;;;;;;5052579;28;20431;-72
2022/05/03 03:50:11;;;;;;;3.30;0.60;;;;;;;;;;5052333;28;20016;-73
2022/05/03 03:52:42;;;;;;;5.90;1.20;;;;;;;;;;5050968;28;20026;-72
2022/05/03 03:55:10;;;;;;;6.57;1.67;;;;;;;;;;5052357;28;20036;-73
2022/05/03 03:57:38;;;;;;;5.55;1.00;;;;;;;;;;5056884;28;20040;-73
2022/05/03 04:00:07;;;;;;;3.28;0.90;;;;;;;;;;5054315;28;20112;-72
2022/05/03 04:02:35;;;;;;;2.90;0.70;;;;;;;;;;5054068;28;20408;-73
2022/05/03 04:05:04;;;;;;;2.70;0.77;;;;;;;;;;5051079;28;20021;-72
2022/05/03 04:07:31;;;;;;;6.85;1.10;;;;;;;;;;5052146;28;20048;-72
2022/05/03 04:09:58;;;;;;;3.70;0.65;;;;;;;;;;5052377;28;20092;-73
2022/05/03 04:12:26;;;;;;;3.35;0.60;;;;;;;;;;5054842;28;20051;-72
2022/05/03 04:14:53;;;;;;;3.28;0.88;;;;;;;;;;5056369;28;20022;-73
2022/05/03 04:17:20;;;;;;;4.90;0.93;;;;;;;;;;5056897;28;20380;-72
2022/05/03 04:19:47;;;;;;;4.72;0.90;;;;;;;;;;5057706;28;20024;-73
2022/05/03 04:22:31;;;;;;;3.50;0.77;;;;;;;;;;5056784;28;20021;-72
2022/05/03 04:24:59;;;;;;;4.03;0.73;;;;;;;;;;5057063;28;20060;-73
2022/05/03 04:27:27;;;;;;;4.28;0.80;;;;;;;;;;5057394;28;20025;-73
2022/05/03 04:29:55;;;;;;;4.68;0.93;;;;;;;;;;5056159;28;20370;-72
2022/05/03 04:32:22;;;;;;;3.53;0.93;;;;;;;;;;5056111;28;20059;-73
2022/05/03 04:34:50;;;;;;;3.80;0.65;;;;;;;;;;5057562;28;20079;-73
2022/05/03 04:37:17;;;;;;;3.05;0.60;;;;;;;;;;5056669;28;20036;-72
2022/05/03 04:39:44;;;;;;;4.25;0.80;;;;;;;;;;5056536;28;20029;-72
2022/05/03 04:42:12;;;;;;;5.00;1.00;;;;;;;;;;5055301;28;20021;-72
2022/05/03 04:44:39;;;;;;;3.83;0.98;;;;;;;;;;5055304;28;20101;-72
2022/05/03 04:47:06;;;;;;;4.47;0.68;;;;;;;;;;5055237;28;20017;-72
2022/05/03 04:49:34;;;;;;;3.90;0.70;;;;;;;;;;5056345;28;20032;-72
2022/05/03 04:52:01;;;;;;;6.38;0.80;;;;;;;;;;5056466;28;20115;-72
2022/05/03 04:54:28;;;;;;;4.50;0.80;;;;;;;;;;5055987;28;20431;-73
2022/05/03 04:57:02;;;;;;;5.13;1.20;;;;;;;;;;5054953;28;20028;-72
2022/05/03 04:59:29;;;;;;;3.95;0.65;;;;;;;;;;5055276;28;20430;-72
2022/05/03 05:01:57;;;;;;;5.13;0.93;;;;;;;;;;5054920;28;20029;-72
2022/05/03 05:04:24;;;;;;;3.47;0.73;;;;;;;;;;5054955;28;20025;-73
2022/05/03 05:06:51;;;;;;;3.92;0.70;;;;;;;;;;5054811;28;20023;-73
2022/05/03 05:09:18;;;;;;;4.47;1.05;;;;;;;;;;5054652;28;20080;-73
2022/05/03 05:11:46;;;;;;;3.50;0.70;;;;;;;;;;5054658;28;20024;-74
2022/05/03 05:14:13;;;;;;;3.28;0.70;;;;;;;;;;5058080;28;20040;-73
2022/05/03 05:16:40;;;;;;;3.67;0.70;;;;;;;;;;5053821;28;20028;-73
2022/05/03 05:19:07;;;;;;;5.70;0.80;;;;;;;;;;5053288;28;20397;-72
2022/05/03 05:21:34;;;;;;;5.03;0.88;;;;;;;;;;5054379;28;20021;-72
2022/05/03 05:24:02;;;;;;;5.32;0.98;;;;;;;;;;5054102;28;20017;-73
2022/05/03 05:26:29;;;;;;;4.30;0.60;;;;;;;;;;5056367;28;20100;-73
2022/05/03 05:28:57;;;;;;;3.45;0.85;;;;;;;;;;5054879;28;20055;-72
2022/05/03 05:31:24;;;;;;;4.43;0.70;;;;;;;;;;5055178;28;20413;-72
2022/05/03 05:33:51;;;;;;;4.25;0.90;;;;;;;;;;5054533;28;20017;-73
2022/05/03 05:36:18;;;;;;;3.40;0.60;;;;;;;;;;5054135;28;20068;-73
2022/05/03 05:38:45;;;;;;;3.72;0.80;;;;;;;;;;5054034;28;20168;-73
2022/05/03 05:41:13;;;;;;;4.63;0.63;;;;;;;;;;5053191;28;20025;-72
2022/05/03 05:43:42;;;;;;;4.68;0.90;;;;;;;;;;5053507;28;20048;-73
2022/05/03 05:46:10;;;;;;;5.65;0.80;;;;;;;;;;5055429;28;20017;-72
2022/05/03 05:48:39;;;;;;;5.38;0.68;;;;;;;;;;5053112;28;20501;-73
2022/05/03 05:51:06;;;;;;;3.88;0.80;;;;;;;;;;5053858;28;20028;-74
2022/05/03 05:53:33;;;;;;;3.40;0.52;;;;;;;;;;5053961;28;20104;-73
2022/05/03 05:56:04;;;;;;;3.20;0.88;;;;;;;;;;5053870;28;20024;-72
2022/05/03 05:58:32;;;;;;;4.13;0.93;;;;;;;;;;5053573;28;20055;-73
2022/05/03 06:00:59;;;;;;;5.68;0.93;;;;;;;;;;5053693;28;20485;-73
2022/05/03 06:03:28;;;;;;;3.35;0.70;;;;;;;;;;5053686;28;20024;-72
2022/05/03 06:05:56;;;;;;;3.42;0.52;;;;;;;;;;5053607;28;20524;-72
2022/05/03 06:08:24;;;;;;;6.03;0.90;;;;;;;;;;5053268;28;20104;-73
2022/05/03 06:10:51;;;;;;;2.72;0.60;;;;;;;;;;5052214;28;20117;-72
2022/05/03 06:13:19;;;;;;;3.90;0.90;;;;;;;;;;5053468;28;20389;-72
2022/05/03 06:15:48;;;;;;;3.95;0.82;;;;;;;;;;5053486;28;20020;-73
2022/05/03 06:18:16;;;;;;;2.85;1.08;;;;;;;;;;5054695;28;20032;-72
2022/05/03 06:20:43;;;;;;;7.70;0.95;;;;;;;;;;5055929;28;20029;-71
2022/05/03 06:23:10;;;;;;;3.30;0.50;;;;;;;;;;5055203;28;20095;-72
2022/05/03 06:25:37;;;;;;;3.25;0.90;;;;;;;;;;5054274;28;20025;-72
2022/05/03 06:28:05;;;;;;;4.47;0.80;;;;;;;;;;5053656;28;20493;-73
2022/05/03 06:30:32;;;;;;;4.40;0.70;;;;;;;;;;5055040;28;20388;-71
2022/05/03 06:32:59;;;;;;;4.28;0.80;;;;;;;;;;5054148;28;20036;-72
2022/05/03 06:35:28;;;;;;;5.70;0.85;;;;;;;;;;5053410;28;20033;-71
2022/05/03 06:37:55;;;;;;;5.57;0.82;;;;;;;;;;5053311;28;20029;-72
2022/05/03 06:40:22;;;;;;;4.43;0.90;;;;;;;;;;5051813;28;20032;-71
2022/05/03 06:42:50;;;;;;;2.45;0.70;;;;;;;;;;5051652;28;20021;-71
2022/05/03 06:45:18;;;;;;;4.75;0.77;;;;;;;;;;5051783;28;20032;-72
2022/05/03 06:47:48;;;;;;;3.78;1.00;;;;;;;;;;5053436;28;20066;-72
2022/05/03 06:50:15;;;;;;;4.05;0.80;;;;;;;;;;5051823;28;20473;-72
2022/05/03 06:52:43;;;;;;;2.70;0.60;;;;;;;;;;5052907;28;20028;-71
2022/05/03 06:55:11;;;;;;;4.10;0.77;;;;;;;;;;5052785;28;20094;-70
2022/05/03 06:57:39;;;;;;;4.18;0.80;;;;;;;;;;5052859;28;20059;-72
2022/05/03 07:00:06;;;;;;;4.57;0.85;;;;;;;;;;5052633;28;20477;-71
2022/05/03 07:02:34;;;;;;;4.28;0.70;;;;;;;;;;5051527;28;20491;-71
2022/05/03 07:05:02;;;;;;;3.13;0.85;;;;;;;;;;5052506;28;20416;-71
2022/05/03 07:07:29;;;;;;;5.43;0.90;;;;;;;;;;5051146;28;20044;-71
2022/05/03 07:09:57;;;;;;;3.70;0.93;;;;;;;;;;5052674;28;20029;-71
2022/05/03 07:12:24;;;;;;;3.15;1.00;;;;;;;;;;5052645;28;20032;-71
2022/05/03 07:14:51;;;;;;;5.25;1.00;;;;;;;;;;5051260;28;20025;-70
2022/05/03 07:22:51;;;;;;;7.38;0.90;;;;;;;;;;5052952;28;20078;-70
2022/05/03 07:25:18;;;;;;;3.80;0.90;;;;;;;;;;5051226;28;20017;-71
2022/05/03 07:27:46;;;;;;;3.92;0.95;;;;;;;;;;5052419;28;20021;-71
2022/05/03 07:30:14;;;;;;;5.38;1.08;;;;;;;;;;5051538;28;20532;-71
2022/05/03 07:32:41;;;;;;;3.83;0.77;;;;;;;;;;5053148;28;20480;-71
2022/05/03 07:35:09;;;;;;;4.05;0.82;;;;;;;;;;5051054;28;20500;-70
2022/05/03 07:37:37;;;;;;;4.25;0.90;;;;;;;;;;5053320;28;20035;-71
2022/05/03 07:40:04;;;;;;;6.85;1.27;;;;;;;;;;5052424;28;20450;-72
2022/05/03 07:42:32;;;;;;;4.85;0.90;;;;;;;;;;5051818;28;20021;-70
2022/05/03 07:44:59;;;;;;;4.85;0.90;;;;;;;;;;5053620;28;20040;-71
2022/05/03 07:47:26;;;;;;;4.32;1.40;;;;;;;;;;5056498;28;20056;-72
2022/05/03 07:49:53;;;;;;;8.73;2.63;;;;;;;;;;5055164;28;20028;-72
2022/05/03 07:52:20;;;;;;;4.55;1.30;;;;;;;;;;5056699;28;20056;-71
2022/05/03 07:54:47;;;;;;;10.70;6.25;;;;;;;;;;5056191;28;20037;-71
2022/05/03 07:57:15;;;;;;;4.65;1.73;;;;;;;;;;5056486;28;20032;-71
2022/05/03 07:59:42;;;;;;;4.85;1.25;;;;;;;;;;5056221;28;20044;-71
2022/05/03 08:02:09;;;;;;;6.15;1.45;;;;;;;;;;5056143;28;20487;-71
2022/05/03 08:04:39;;;;;;;4.97;1.05;;;;;;;;;;5056059;28;20032;-72
2022/05/03 08:07:07;;;;;;;3.38;1.00;;;;;;;;;;5056100;28;20021;-72
2022/05/03 08:09:36;;;;;;;3.58;1.05;;;;;;;;;;5056119;28;20025;-71
2022/05/03 08:12:04;;;;;;;6.13;1.23;;;;;;;;;;5054395;28;20051;-71
2022/05/03 08:14:31;;;;;;;4.95;1.15;;;;;;;;;;5055779;28;20025;-70
2022/05/03 08:16:58;;;;;;;7.13;1.20;;;;;;;;;;5055642;28;20080;-70
2022/05/03 08:19:25;;;;;;;3.78;1.25;;;;;;;;;;5057025;28;20067;-72
2022/05/03 08:21:54;;;;;;;4.93;1.33;;;;;;;;;;5054432;28;20425;-72
2022/05/03 08:24:21;;;;;;;6.28;1.30;;;;;;;;;;5055844;28;20021;-72
2022/05/03 08:26:48;;;;;;;7.40;1.30;;;;;;;;;;5055853;28;20083;-72
2022/05/03 08:29:16;;;;;;;6.82;1.48;;;;;;;;;;5056188;28;20043;-72
2022/05/03 08:31:43;;;;;;;5.55;1.13;;;;;;;;;;5055664;28;20071;-73
2022/05/03 08:34:10;;;;;;;5.30;1.25;;;;;;;;;;5055818;28;20046;-72
2022/05/03 08:36:38;;;;;;;4.82;1.92;;;;;;;;;;5054355;28;20029;-72
2022/05/03 08:42:06;;;;;;;4.20;1.85;;;;;;;;;;5056370;28;20459;-72
2022/05/03 08:44:36;;;;;;;5.90;1.48;;;;;;;;;;5056323;28;20081;-72
2022/05/03 08:47:03;;;;;;;4.60;1.60;;;;;;;;;;5056141;28;20013;-71
2022/05/03 08:49:38;;;;;;;5.97;1.50;;;;;;;;;;5055596;28;20017;-72
2022/05/03 08:52:08;;;;;;;7.53;1.33;;;;;;;;;;5054610;28;20067;-73
2022/05/03 08:54:39;;;;;;;3.40;1.17;;;;;;;;;;5055141;28;20021;-73
2022/05/03 08:57:10;;;;;;;5.05;1.27;;;;;;;;;;5054403;28;20062;-70
2022/05/03 08:59:38;;;;;;;4.13;1.65;;;;;;;;;;5054491;28;20086;-70
2022/05/03 09:02:06;;;;;;;3.97;1.60;;;;;;;;;;5055734;28;20013;-72
2022/05/03 09:04:33;;;;;;;3.95;1.40;;;;;;;;;;5054346;28;20017;-71
2022/05/03 09:07:16;;;;;;;6.95;2.03;;;;;;;;;;5055653;28;20504;-72
2022/05/03 09:09:44;;;;;;;11.43;2.00;;;;;;;;;;5056431;28;20071;-71
2022/05/03 09:12:22;;;;;;;5.82;1.58;;;;;;;;;;5054139;28;20025;-72
2022/05/03 09:14:49;;;;;;;4.93;1.63;;;;;;;;;;5055280;28;20017;-70
2022/05/03 09:17:34;;;;;;;6.10;2.15;;;;;;;;;;5054879;28;20068;-71
2022/05/03 09:23:46;;;;;;;4.53;1.30;;;;;;;;;;5053806;28;20032;-70
2022/05/03 09:25:38;;;;;;;5.53;1.27;;;;;;;;;;5043522;28;20493;-72
2022/05/03 09:28:06;;;;;;;4.60;1.67;;;;;;;;;;5053713;28;20029;-72
2022/05/03 09:30:34;;;;;;;5.68;1.60;;;;;;;;;;5053567;28;20036;-72
2022/05/03 09:33:01;;;;;;;6.18;1.58;;;;;;;;;;5055233;28;20362;-72
2022/05/03 09:35:35;;;;;;;7.38;1.33;;;;;;;;;;5054511;28;20021;-72
2022/05/03 09:38:04;;;;;;;5.07;1.63;;;;;;;;;;5054574;28;20029;-73
2022/05/03 09:40:39;;;;;;;5.97;1.73;;;;;;;;;;5054813;28;20432;-73
2022/05/03 09:43:06;;;;;;;6.00;1.27;;;;;;;;;;5054256;28;20037;-71
2022/05/03 09:45:34;;;;;;;5.03;1.70;;;;;;;;;;5053550;28;20020;-72
2022/05/03 09:48:02;;;;;;;3.72;1.48;;;;;;;;;;5055039;28;20144;-73
2022/05/03 09:50:37;;;;;;;6.45;1.70;;;;;;;;;;5054493;28;20049;-74
2022/05/03 09:53:09;;;;;;;5.85;1.75;;;;;;;;;;5054135;28;20032;-73
2022/05/03 09:55:37;;;;;;;4.20;1.40;;;;;;;;;;5053781;28;20029;-73
2022/05/03 09:58:06;;;;;;;6.85;1.65;;;;;;;;;;5054935;28;20016;-74
2022/05/03 10:00:34;;;;;;;8.38;2.20;;;;;;;;;;5061559;28;20024;-74
2022/05/03 10:03:02;;;;;;;6.53;2.17;;;;;;;;;;5062107;28;20029;-74
2022/05/03 10:05:30;;;;;;;4.65;1.38;;;;;;;;;;5062752;28;20031;-74
2022/05/03 10:07:57;;;;;;;4.45;1.42;;;;;;;;;;5055393;28;20059;-74
2022/05/03 10:10:25;;;;;;;5.85;1.38;;;;;;;;;;5052894;28;20036;-73
2022/05/03 10:12:53;;;;;;;5.47;1.48;;;;;;;;;;5053654;28;20056;-74
2022/05/03 10:21:04;;;;;;;5.85;1.20;;;;;;;;;;5056267;28;20107;-72
2022/05/03 10:23:35;;;;;;;4.30;1.40;;;;;;;;;;5053514;28;20025;-72
2022/05/03 10:26:05;;;;;;;4.45;1.13;;;;;;;;;;5053560;28;20048;-72
2022/05/03 10:28:51;;;;;;;5.03;1.38;;;;;;;;;;5052167;28;20021;-73
2022/05/03 10:31:22;;;;;;;4.57;1.60;;;;;;;;;;5053646;28;20021;-72
2022/05/03 10:33:49;;;;;;;7.00;1.42;;;;;;;;;;5053360;28;20075;-71
2022/05/03 10:36:35;;;;;;;4.68;1.25;;;;;;;;;;5053322;28;20124;-71
2022/05/03 10:39:21;;;;;;;7.60;1.90;;;;;;;;;;5052025;28;20025;-72
2022/05/03 10:42:12;;;;;;;6.15;1.60;;;;;;;;;;5051748;28;20036;-72
2022/05/03 10:44:43;;;;;;;5.32;1.48;;;;;;;;;;5053264;28;20092;-72
2022/05/03 10:47:14;;;;;;;5.18;1.40;;;;;;;;;;5053088;28;20021;-72
2022/05/03 10:49:59;;;;;;;4.00;1.35;;;;;;;;;;5060959;28;20029;-71
2022/05/03 10:52:26;;;;;;;4.88;1.40;;;;;;;;;;5054353;28;20389;-72
2022/05/03 10:55:06;;;;;;;4.57;1.38;;;;;;;;;;5054734;28;20026;-71
2022/05/03 10:57:34;;;;;;;5.28;1.25;;;;;;;;;;5054551;28;20108;-71
2022/05/03 11:00:02;;;;;;;5.47;1.40;;;;;;;;;;5053282;28;20082;-72
2022/05/03 11:02:31;;;;;;;4.60;1.52;;;;;;;;;;5053146;28;20021;-71
2022/05/03 11:05:15;;;;;;;3.47;1.13;;;;;;;;;;5053032;28;20070;-72
2022/05/03 11:07:42;;;;;;;3.67;1.48;;;;;;;;;;5052796;28;20044;-71
2022/05/03 11:10:27;;;;;;;4.53;1.23;;;;;;;;;;5053027;28;20029;-72
2022/05/03 11:12:55;;;;;;;4.38;1.25;;;;;;;;;;5052880;28;20027;-72
2022/05/03 11:15:23;;;;;;;5.05;1.52;;;;;;;;;;5053050;28;20025;-71
2022/05/03 11:17:51;;;;;;;3.10;1.30;;;;;;;;;;5052918;28;20032;-72
2022/05/03 11:20:22;;;;;;;3.63;1.40;;;;;;;;;;5053488;28;20025;-72
2022/05/03 11:22:50;;;;;;;5.25;1.42;;;;;;;;;;5057228;28;20013;-72
2022/05/03 11:25:17;;;;;;;5.07;1.30;;;;;;;;;;5055731;28;20044;-72
2022/05/03 11:27:45;;;;;;;8.65;1.35;;;;;;;;;;5056825;28;20027;-73
2022/05/03 11:30:12;;;;;;;6.25;1.50;;;;;;;;;;5056970;28;20029;-73
2022/05/03 11:32:41;;;;;;;4.93;1.50;;;;;;;;;;5056773;28;20056;-74
2022/05/03 11:35:09;;;;;;;6.07;1.50;;;;;;;;;;5055501;28;20029;-73
2022/05/03 11:37:37;;;;;;;4.93;1.50;;;;;;;;;;5056673;28;20028;-73
2022/05/03 11:40:11;;;;;;;4.10;1.35;;;;;;;;;;5056813;28;20017;-73
2022/05/03 11:42:39;;;;;;;4.47;1.50;;;;;;;;;;5056834;28;20025;-73
2022/05/03 11:45:07;;;;;;;7.20;1.25;;;;;;;;;;5055221;28;20485;-74
2022/05/03 11:47:35;;;;;;;4.63;1.23;;;;;;;;;;5056676;28;20549;-73
2022/05/03 11:50:03;;;;;;;4.93;1.23;;;;;;;;;;5056782;28;20473;-73
2022/05/03 11:58:01;;;;;;;7.10;1.52;;;;;;;;;;5056681;28;20086;-73
2022/05/03 12:00:28;;;;;;;4.50;1.30;;;;;;;;;;5054996;28;20067;-73
2022/05/03 12:03:00;;;;;;;4.53;1.35;;;;;;;;;;5056441;28;20070;-73
2022/05/03 12:05:27;;;;;;;6.05;1.20;;;;;;;;;;5056266;28;20017;-74
2022/05/03 12:07:55;;;;;;;4.43;1.45;;;;;;;;;;5054575;28;20037;-74
2022/05/03 12:10:25;;;;;;;4.47;1.50;;;;;;;;;;5056397;28;20052;-74
2022/05/03 12:13:07;;;;;;;4.45;1.35;;;;;;;;;;5055092;28;20451;-73
2022/05/03 12:15:46;;;;;;;5.50;1.50;;;;;;;;;;5056215;28;20040;-73
2022/05/03 12:18:13;;;;;;;3.10;1.20;;;;;;;;;;5054694;28;20426;-73
2022/05/03 12:20:44;;;;;;;3.58;1.48;;;;;;;;;;5055928;28;20025;-73
2022/05/03 12:23:18;;;;;;;4.07;1.30;;;;;;;;;;5054756;28;20131;-74
2022/05/03 12:25:49;;;;;;;4.57;1.50;;;;;;;;;;5055875;28;20017;-74
2022/05/03 12:28:17;;;;;;;3.65;1.15;;;;;;;;;;5056049;28;20059;-74
2022/05/03 12:30:44;;;;;;;4.97;1.50;;;;;;;;;;5054509;28;20025;-74
2022/05/03 12:33:15;;;;;;;5.55;1.27;;;;;;;;;;5054812;28;20021;-73
2022/05/03 12:35:44;;;;;;;3.72;1.30;;;;;;;;;;5055694;28;20032;-74
2022/05/03 12:38:12;;;;;;;6.03;1.67;;;;;;;;;;5054213;28;20028;-72
2022/05/03 12:40:43;;;;;;;3.70;1.13;;;;;;;;;;5055758;28;20389;-72
2022/05/03 12:43:09;;;;;;;;;;;;;;;;;;5054583;28;20025;-72
2022/05/03 12:45:37;;;;;;;3.97;1.52;;;;;;;;;;5054238;28;19909;-73
2022/05/03 12:48:04;;;;;;;3.67;1.75;;;;;;;;;;5054071;28;20025;-72
2022/05/03 12:50:31;;;;;;;4.15;1.20;;;;;;;;;;5055523;28;20099;-73
2022/05/03 12:52:58;;;;;;;3.78;1.05;;;;;;;;;;5055446;28;20029;-73
2022/05/03 12:55:25;;;;;;;3.85;1.20;;;;;;;;;;5054062;28;20029;-74
2022/05/03 13:00:39;;;;;;;5.88;1.55;;;;;;;;;;5055242;28;20060;-73
2022/05/03 13:03:10;;;;;;;8.00;1.60;;;;;;;;;;5055079;28;20021;-73
2022/05/03 13:05:38;;;;;;;5.70;1.40;;;;;;;;;;5053883;28;20499;-74
2022/05/03 13:08:05;;;;;;;5.32;1.42;;;;;;;;;;5053695;28;20064;-73
2022/05/03 13:10:33;;;;;;;5.60;1.38;;;;;;;;;;5055019;28;20017;-73
2022/05/03 13:13:01;;;;;;;3.05;1.23;;;;;;;;;;5055260;28;20021;-73
2022/05/03 13:15:29;;;;;;;8.88;1.40;;;;;;;;;;5053676;28;20481;-74
2022/05/03 13:17:56;;;;;;;4.32;1.13;;;;;;;;;;5053658;28;20029;-73
2022/05/03 13:20:23;;;;;;;4.80;1.50;;;;;;;;;;5054856;28;20021;-73
2022/05/03 13:22:50;;;;;;;4.95;1.13;;;;;;;;;;5054926;28;20038;-73
2022/05/03 13:25:17;;;;;;;5.30;1.17;;;;;;;;;;5054635;28;20095;-73
2022/05/03 13:27:44;;;;;;;5.28;1.10;;;;;;;;;;5054813;28;20147;-73
2022/05/03 13:30:12;;;;;;;7.90;1.50;;;;;;;;;;5054739;28;20025;-73
2022/05/03 13:32:39;;;;;;;4.55;1.33;;;;;;;;;;5053398;28;20025;-73
2022/05/03 13:35:07;;;;;;;4.25;1.20;;;;;;;;;;5054555;28;20092;-72
2022/05/03 13:40:34;;;;;;;5.45;1.30;;;;;;;;;;5054287;28;20036;-73
2022/05/03 13:43:04;;;;;;;6.30;2.25;;;;;;;;;;5054323;28;20017;-73
2022/05/03 13:45:31;;;;;;;5.22;1.55;;;;;;;;;;5054519;28;20020;-72
2022/05/03 13:47:58;;;;;;;9.80;2.17;;;;;;;;;;5054353;28;20027;-72
2022/05/03 13:50:25;;;;;;;4.07;1.70;;;;;;;;;;5054300;28;20032;-73
2022/05/03 13:52:52;;;;;;;7.28;1.90;;;;;;;;;;5054444;28;20043;-73
2022/05/03 13:55:19;;;;;;;6.47;1.73;;;;;;;;;;5054136;28;20021;-74
2022/05/03 13:57:47;;;;;;;5.55;1.55;;;;;;;;;;5054159;28;20025;-75
2022/05/03 14:00:14;;;;;;;5.53;1.67;;;;;;;;;;5054029;28;20025;-73
2022/05/03 14:02:42;;;;;;;9.10;2.17;;;;;;;;;;5054352;28;20025;-74
2022/05/03 14:05:10;;;;;;;3.83;1.30;;;;;;;;;;5052647;28;20071;-74
2022/05/03 14:07:38;;;;;;;4.63;1.42;;;;;;;;;;5053762;28;20072;-74
2022/05/03 14:10:05;;;;;;;7.85;1.80;;;;;;;;;;5054108;28;20037;-73
2022/05/03 14:12:33;;;;;;;6.80;1.88;;;;;;;;;;5054511;28;20048;-73
2022/05/03 14:15:00;;;;;;;4.18;1.40;;;;;;;;;;5054199;28;20083;-73
2022/05/03 14:17:27;;;;;;;3.50;1.15;;;;;;;;;;5054021;28;20032;-72
2022/05/03 14:19:55;;;;;;;6.63;1.52;;;;;;;;;;5053032;28;20091;-73
2022/05/03 14:22:22;;;;;;;6.55;1.75;;;;;;;;;;5052961;28;20020;-74
2022/05/03 14:24:49;;;;;;;8.43;2.00;;;;;;;;;;5054231;28;20021;-75
2022/05/03 14:27:16;;;;;;;7.88;1.67;;;;;;;;;;5054602;28;20388;-75
2022/05/03 14:29:43;;;;;;;7.53;1.80;;;;;;;;;;5054084;28;20029;-75
2022/05/03 14:32:10;;;;;;;3.85;1.30;;;;;;;;;;5053162;28;20017;-75
2022/05/03 14:34:37;;;;;;;4.63;1.50;;;;;;;;;;5052770;28;20065;-75
2022/05/03 14:37:05;;;;;;;5.65;1.75;;;;;;;;;;5053668;28;20418;-75
2022/05/03 14:39:32;;;;;;;4.18;1.92;;;;;;;;;;5053664;28;20074;-75
2022/05/03 14:42:03;;;;;;;6.93;1.70;;;;;;;;;;5052180;28;20036;-75
2022/05/03 14:44:31;;;;;;;5.40;1.90;;;;;;;;;;5052168;28;20388;-75
2022/05/03 14:46:58;;;;;;;4.05;1.60;;;;;;;;;;5053482;28;20043;-75
2022/05/03 14:49:25;;;;;;;3.97;1.60;;;;;;;;;;5052201;28;20025;-75
2022/05/03 14:51:53;;;;;;;4.75;1.63;;;;;;;;;;5053430;28;20021;-75
2022/05/03 14:54:20;;;;;;;10.32;1.60;;;;;;;;;;5053309;28;20089;-74
2022/05/03 15:05:06;;;;;;;6.72;1.85;;;;;;;;;;5053360;28;20036;-75
2022/05/03 15:07:34;;;;;;;5.20;2.03;;;;;;;;;;5051909;28;20037;-76
2022/05/03 15:10:01;;;;;;;5.82;1.75;;;;;;;;;;5053300;28;20025;-76
2022/05/03 15:12:28;;;;;;;5.53;1.90;;;;;;;;;;5053249;28;20374;-76
2022/05/03 15:14:55;;;;;;;3.75;1.75;;;;;;;;;;5052432;28;20500;-76
2022/05/03 15:17:22;;;;;;;5.43;1.60;;;;;;;;;;5053322;28;20028;-76
2022/05/03 15:19:50;;;;;;;4.57;1.70;;;;;;;;;;5053963;28;20028;-76
2022/05/03 15:22:17;;;;;;;6.25;1.95;;;;;;;;;;5051725;28;20060;-77
2022/05/03 15:24:44;;;;;;;5.88;2.15;;;;;;;;;;5053252;28;20022;-77
2022/05/03 15:27:13;;;;;;;7.15;1.90;;;;;;;;;;5053471;28;20024;-76
2022/05/03 15:29:42;;;;;;;5.13;1.80;;;;;;;;;;5053208;28;20100;-76
2022/05/03 15:32:27;;;;;;;6.72;2.05;;;;;;;;;;5051790;28;20078;-76
2022/05/03 15:34:54;;;;;;;3.55;1.92;;;;;;;;;;5052812;28;20497;-76
2022/05/03 15:37:22;;;;;;;3.85;2.50;;;;;;;;;;5052965;28;20055;-76
2022/05/03 15:39:51;;;;;;;3.85;1.90;;;;;;;;;;5052644;28;20099;-76